Storrs Mansfield, CT (06268)

4:59 PM EST on February 06, 2016 (GMT -0500)
Storrs | | Change Station
CLOSE
Current Station
Personal Weather Station
Location: Mansfield, CT
Elevation: 499 ft
Nearby Weather Stations

Elev 499 ft 41.81 °N, 72.28 °W | Updated 8 seconds ago

Mostly Cloudy
Mostly Cloudy
32.5 °F
Feels Like 32 °F
N
1.1
Wind Variable Wind from SSE
Gusts 2.5 mph

Today
High -- | Low -- °F
--% Chance of Precip.
Yesterday
High -- | Low -- °F
Precip. -- in
Pressure 30.29 in
Visibility 10.0 miles
Clouds Clear
Windchill 32 °F
Dew Point 19 °F
Humidity 58%
Rainfall 0.00 in
Snow Depth Not available.
6:56 AM 5:10 PM
Waning Crescent, 4% visible
METAR KIJD 062152Z AUTO 19006KT 10SM CLR 01/M05 A3028 RMK AO2 SLP257 T00111050
Pressure 30.29 in
Visibility 10.0 miles
Clouds Clear
Windchill 32 °F
Dew Point 19 °F
Humidity 58%
Rainfall 0.00 in
Snow Depth Not available.
6:56 AM 5:10 PM
Waning Crescent, 4% visible
METAR KIJD 062152Z AUTO 19006KT 10SM CLR 01/M05 A3028 RMK AO2 SLP257 T00111050

10-Day Weather Forecast

Almanac

Astronomy

Feb. 06, 2016 Rise Set
Actual Time
Civil Twilight
Nautical Twilight
Astronomical Twilight
Moon
Length of Visible Light
Length of Day
Tomorrow will be .
, % of the Moon is Illuminated

Today's Extremes

State Highs State Lows

Community

WunderPhotos

Upload Photos

1,891,051 photos uploaded!

WunderBlog® & News

Nearby

Air Quality

  Air Quality AQ Index Pollutant
Not available.

Snow Depth

Station Depth Elevation

Earthquake Activity

City Distance Mag. Time & Date
Minimum magnitude displayed is 2.5.

Coastal Water Temperatures

Place Temperature

Stations

Nearby Weather Stations

Station Location Temp. Windchill Dew Point Humidity Wind Precip. Elev Updated Type
                   

Watches & Warnings

There are currently no watches in effect.